This is the latest recevied weather packets stored in our database for station/object F6BIJ-13. If no packets are shown the sender has not sent any weather packets the latest 10 day(s).
| Time | Temp. | Humidity | Pressure | Rain* | Wind** | Luminosity | Snow |
|---|---|---|---|---|---|---|---|
| 1777404997 | 13.33° C | 97% | 1017.1 hPa | 1.78 mm | - | - | - |
| 1777404637 | 13.33° C | 96% | 1017 hPa | 2.03 mm | - | - | - |
| 1777404277 | 13.33° C | 96% | 1017.1 hPa | 2.03 mm | - | - | - |
| 1777403197 | 13.89° C | 97% | 1017 hPa | 2.03 mm | - | - | - |
| 1777402837 | 13.89° C | 97% | 1017 hPa | 1.78 mm | - | - | - |
| 1777400677 | 13.33° C | 96% | 1016.7 hPa | 3.05 mm | - | - | - |
| 1777399597 | 13.89° C | 96% | 1016.6 hPa | 3.81 mm | - | - | - |
| 1777399237 | 13.89° C | 96% | 1016.4 hPa | 3.56 mm | - | - | - |
| 1777398877 | 13.89° C | 96% | 1016.4 hPa | 3.56 mm | - | - | - |
| 1777397797 | 13.33° C | 96% | 1016.4 hPa | 2.54 mm | - | - | - |
| 1777397437 | 13.89° C | 96% | 1016.2 hPa | 2.79 mm | - | - | - |
| 1777397077 | 13.89° C | 96% | 1016.1 hPa | 3.05 mm | - | - | - |
| 1777395637 | 14.44° C | 95% | 1016.1 hPa | 2.79 mm | - | - | - |
| 1777394917 | 14.44° C | 95% | 1016.1 hPa | 4.06 mm | - | - | - |
| 1777394557 | 14.44° C | 95% | 1016 hPa | 4.06 mm | - | - | - |
| 1777393837 | 14.44° C | 94% | 1015.9 hPa | 4.06 mm | - | - | - |
| 1777393477 | 14.44° C | 95% | 1015.9 hPa | 4.06 mm | - | - | - |
| 1777392037 | 15° C | 94% | 1016 hPa | 3.3 mm | - | - | - |
| 1777388437 | 15.56° C | 93% | 1014.8 hPa | 1.78 mm | - | - | - |
| 1777388077 | 15.56° C | 92% | 1014.7 hPa | 2.54 mm | - | - | - |
| 1777384837 | 18.89° C | 69% | 1014.1 hPa | 0 mm | - | - | - |
| 1777384477 | 18.89° C | 64% | 1014 hPa | 0 mm | - | - | - |
| 1777384117 | 19.44° C | 65% | 1014 hPa | 0 mm | - | - | - |
| 1777383037 | 20° C | 57% | 1014.4 hPa | 0 mm | - | - | - |
| 1777382677 | 20.56° C | 53% | 1014.8 hPa | 0 mm | - | - | - |
* Rain latest 24 hours (hover to see other rain measurements)
** Current wind speed in m/s (hover to see current wind gust speed)